DTTA/TUN METAR and TAF weather

Enter ICAO airport designator
Station Type Date Time Source
DTTA METAR 2022/05/26 05:30 UTC NOAA

DTTA 260530Z 32003KT 290V030 9999 FEW020 SCT040 20/18 Q1014


Station Type Date Time Source
DTTA Decoded METAR 2022/05/26 05:30 UTC NOAA

Tunis-Carthage, Tunisia (DTTA) 36-50N 010-14E 4M
May 26, 2022 - 01:30 AM EDT / 2022.05.26 0530 UTC
Wind: from the NW (320 degrees) at 3 MPH (3 KT) (direction variable):0
Visibility: greater than 7 mile(s):0
Sky conditions: partly cloudy
Temperature: 68 F (20 C)
Dew Point: 64 F (18 C)
Relative Humidity: 88%
Pressure (altimeter): 29.94 in. Hg (1014 hPa)
ob: DTTA 260530Z 32003KT 290V030 9999 FEW020 SCT040 20/18 Q1014
cycle: 5

Station Type Date Time Source
DTTA TAF 2022/05/26 06:45 UTC NOAA

TAF DTTA 260500Z 2606/2706 34005KT 8000 SCT020 PROB40
TEMPO 2612/2618 4000 SHRA SCT023TCU
TEMPO 2621/2702 35015G27KT 4000 TSRA FEW023CB

Example: see airport list